createdAt,value
2023-03-11T00:01:15.162Z,0.57
2023-03-11T00:03:41.746Z,0.40
2023-03-11T00:06:08.303Z,0.50
2023-03-11T00:08:34.859Z,0.50
2023-03-11T00:11:02.049Z,0.50
2023-03-11T00:13:29.662Z,0.40
2023-03-11T00:15:56.928Z,0.60
2023-03-11T00:18:27.251Z,0.40
2023-03-11T00:20:55.874Z,0.63
2023-03-11T00:23:23.035Z,0.40
2023-03-11T00:25:49.597Z,0.32
2023-03-11T00:28:16.690Z,0.50
2023-03-11T00:30:45.454Z,0.30
2023-03-11T00:33:14.073Z,0.50
2023-03-11T00:35:42.235Z,0.30
2023-03-11T00:38:11.863Z,0.30
2023-03-11T00:40:39.399Z,0.38
2023-03-11T00:43:05.984Z,0.40
2023-03-11T00:45:32.902Z,0.50
2023-03-11T00:47:59.565Z,0.65
2023-03-11T00:50:32.265Z,0.45
2023-03-11T00:52:59.299Z,0.50
2023-03-11T00:55:28.965Z,0.70
2023-03-11T00:57:58.155Z,0.45
2023-03-11T01:00:26.233Z,0.40
2023-03-11T01:02:54.573Z,0.40
2023-03-11T01:05:23.906Z,0.30
2023-03-11T01:07:50.440Z,0.63
2023-03-11T01:10:17.603Z,0.47
2023-03-11T01:12:44.408Z,0.38
2023-03-11T01:15:19.100Z,0.60
2023-03-11T01:17:46.182Z,0.38
2023-03-11T01:20:13.761Z,0.40
2023-03-11T01:22:40.336Z,0.45
2023-03-11T01:25:07.227Z,0.40
2023-03-11T01:27:33.895Z,0.60
2023-03-11T01:30:00.431Z,0.28
2023-03-11T01:32:27.080Z,0.32
2023-03-11T01:34:53.609Z,0.30
2023-03-11T01:37:20.493Z,0.60
2023-03-11T01:39:47.918Z,0.60
2023-03-11T01:42:14.504Z,0.30
2023-03-11T01:44:41.036Z,0.40
2023-03-11T01:47:10.659Z,0.40
2023-03-11T01:49:41.986Z,0.43
2023-03-11T01:52:09.724Z,0.40
2023-03-11T01:54:39.204Z,0.30
2023-03-11T01:57:09.652Z,0.50
2023-03-11T01:59:48.740Z,0.45
2023-03-11T02:02:18.915Z,0.30
2023-03-11T02:04:46.480Z,0.60
2023-03-11T02:07:14.812Z,0.40
2023-03-11T02:09:41.664Z,0.40
2023-03-11T02:12:11.450Z,0.43
2023-03-11T02:14:43.427Z,0.43
2023-03-11T02:17:10.309Z,0.77
2023-03-11T02:19:59.343Z,0.43
2023-03-11T02:22:28.355Z,0.35
2023-03-11T02:25:11.384Z,0.40
2023-03-11T02:27:41.750Z,0.40
2023-03-11T02:30:13.087Z,0.40
2023-03-11T02:32:41.063Z,0.50
2023-03-11T02:35:07.838Z,0.57
2023-03-11T02:37:34.486Z,0.50
2023-03-11T02:40:22.904Z,0.38
2023-03-11T02:42:56.407Z,0.40
2023-03-11T02:45:25.786Z,0.40
2023-03-11T02:47:54.622Z,0.28
2023-03-11T02:50:21.541Z,0.40
2023-03-11T02:52:49.693Z,0.55
2023-03-11T02:55:18.119Z,0.50
2023-03-11T02:57:45.322Z,0.40
2023-03-11T03:00:15.181Z,0.50
2023-03-11T03:02:43.366Z,0.30
2023-03-11T03:05:11.472Z,0.35
2023-03-11T03:07:38.105Z,0.35
2023-03-11T03:10:06.924Z,0.30
2023-03-11T03:12:33.510Z,0.68
2023-03-11T03:15:00.199Z,0.35
2023-03-11T03:17:26.847Z,0.32
2023-03-11T03:19:53.412Z,0.43
2023-03-11T03:22:20.043Z,0.43
2023-03-11T03:24:46.785Z,0.50
2023-03-11T03:27:13.349Z,0.50
2023-03-11T03:29:39.877Z,0.20
2023-03-11T03:32:06.801Z,0.43
2023-03-11T03:34:33.609Z,0.45
2023-03-11T03:37:00.185Z,0.30
2023-03-11T03:39:28.735Z,0.50
2023-03-11T03:41:56.572Z,0.50
2023-03-11T03:44:23.132Z,0.30
2023-03-11T03:46:49.704Z,0.32
2023-03-11T03:49:16.448Z,0.40
2023-03-11T03:51:43.079Z,0.28
2023-03-11T03:54:09.668Z,0.32
2023-03-11T03:56:36.242Z,0.38
2023-03-11T03:59:02.919Z,0.30
2023-03-11T04:01:29.529Z,0.40
2023-03-11T04:03:56.087Z,0.40
2023-03-11T04:06:25.395Z,0.40
2023-03-11T04:08:53.032Z,0.40
2023-03-11T04:11:19.984Z,0.38
2023-03-11T04:13:46.856Z,0.38
2023-03-11T04:16:17.581Z,0.40
2023-03-11T04:18:44.483Z,0.25
2023-03-11T04:21:11.317Z,0.35
2023-03-11T04:23:37.892Z,0.38
2023-03-11T04:26:04.739Z,0.50
2023-03-11T04:28:31.459Z,0.35
2023-03-11T04:30:58.163Z,0.40
2023-03-11T04:33:25.116Z,0.35
2023-03-11T04:35:51.851Z,0.30
2023-03-11T04:38:18.420Z,0.25
2023-03-11T04:40:44.955Z,0.40
2023-03-11T04:43:11.524Z,0.32
2023-03-11T04:45:39.279Z,0.30
2023-03-11T04:48:06.122Z,0.43
2023-03-11T04:50:32.778Z,0.40
2023-03-11T04:52:59.364Z,0.30
2023-03-11T04:55:26.197Z,0.30
2023-03-11T04:57:52.723Z,0.30
2023-03-11T05:00:24.701Z,0.30
2023-03-11T05:02:51.521Z,0.40
2023-03-11T05:05:21.179Z,0.30
2023-03-11T05:07:49.294Z,0.30
2023-03-11T05:10:22.421Z,0.28
2023-03-11T05:12:50.090Z,0.32
2023-03-11T05:15:17.302Z,0.32
2023-03-11T05:17:43.916Z,0.30
2023-03-11T05:20:11.266Z,0.32
2023-03-11T05:22:38.327Z,0.20
2023-03-11T05:25:05.753Z,0.40
2023-03-11T05:27:32.588Z,0.40
2023-03-11T05:29:59.156Z,0.30
2023-03-11T05:32:25.737Z,0.30
2023-03-11T05:34:52.661Z,0.20
2023-03-11T05:37:19.339Z,0.40
2023-03-11T05:39:45.868Z,0.30
2023-03-11T05:42:12.543Z,0.40
2023-03-11T05:44:39.259Z,0.40
2023-03-11T05:47:05.942Z,0.40
2023-03-11T05:49:32.630Z,0.30
2023-03-11T05:51:59.269Z,0.30
2023-03-11T05:54:26.164Z,0.30
2023-03-11T05:56:52.806Z,0.20
2023-03-11T05:59:19.452Z,0.20
2023-03-11T06:01:46.125Z,0.20
2023-03-11T06:04:12.956Z,0.30
2023-03-11T06:06:41.588Z,0.60
2023-03-11T06:09:12.853Z,0.40
2023-03-11T06:11:39.445Z,0.30
2023-03-11T06:14:06.165Z,0.47
2023-03-11T06:16:32.953Z,0.20
2023-03-11T06:19:02.536Z,0.30
2023-03-11T06:21:29.156Z,0.20
2023-03-11T06:23:55.860Z,0.25
2023-03-11T06:26:23.540Z,0.43
2023-03-11T06:28:51.795Z,0.30
2023-03-11T06:31:28.790Z,0.30
2023-03-11T06:33:59.362Z,0.40
2023-03-11T06:36:26.462Z,0.30
2023-03-11T06:38:54.698Z,0.30
2023-03-11T06:41:21.447Z,0.25
2023-03-11T06:43:48.013Z,0.30
2023-03-11T06:46:20.402Z,0.40
2023-03-11T06:48:47.430Z,0.30
2023-03-11T06:51:14.223Z,0.22
2023-03-11T06:53:40.857Z,0.30
2023-03-11T06:56:10.201Z,0.30
2023-03-11T06:58:39.110Z,0.35
2023-03-11T07:01:08.643Z,0.30
2023-03-11T07:03:35.219Z,0.50
2023-03-11T07:06:02.245Z,0.50
2023-03-11T07:08:30.308Z,0.65
2023-03-11T07:11:07.418Z,0.30
2023-03-11T07:13:34.589Z,0.40
2023-03-11T07:16:05.264Z,0.30
2023-03-11T07:18:32.787Z,0.30
2023-03-11T07:20:59.380Z,0.32
2023-03-11T07:23:25.933Z,0.40
2023-03-11T07:25:52.909Z,0.30
2023-03-11T07:28:21.342Z,0.30
2023-03-11T07:30:48.680Z,0.45
2023-03-11T07:33:16.007Z,0.20
2023-03-11T07:35:42.892Z,0.40
2023-03-11T07:38:09.640Z,0.30
2023-03-11T07:40:36.703Z,0.38
2023-03-11T07:43:03.483Z,0.50
2023-03-11T07:45:30.026Z,0.55
2023-03-11T07:47:56.585Z,0.35
2023-03-11T07:50:23.191Z,0.50
2023-03-11T07:52:49.941Z,0.60
2023-03-11T07:55:16.546Z,0.60
2023-03-11T07:57:43.263Z,1.00
2023-03-11T08:00:11.051Z,0.75
2023-03-11T08:02:37.713Z,0.50
2023-03-11T08:05:04.498Z,0.70
2023-03-11T08:07:32.342Z,0.57
2023-03-11T08:09:59.367Z,0.50
2023-03-11T08:12:25.942Z,0.70
2023-03-11T08:14:52.492Z,0.57
2023-03-11T08:17:19.095Z,0.50
2023-03-11T08:19:45.711Z,0.60
2023-03-11T08:22:12.277Z,0.50
2023-03-11T08:24:38.863Z,0.60
2023-03-11T08:27:05.751Z,0.50
2023-03-11T08:29:32.314Z,0.40
2023-03-11T08:31:58.885Z,0.32
2023-03-11T08:34:27.624Z,0.52
2023-03-11T08:36:54.436Z,0.50
2023-03-11T08:39:21.002Z,0.50
2023-03-11T08:41:47.553Z,0.32
2023-03-11T08:44:14.128Z,0.70
2023-03-11T08:46:40.799Z,0.63
2023-03-11T08:49:07.542Z,0.50
2023-03-11T08:51:35.301Z,0.50
2023-03-11T08:54:03.004Z,0.70
2023-03-11T08:56:29.875Z,0.45
2023-03-11T08:58:56.536Z,0.40
2023-03-11T09:01:23.793Z,0.40
2023-03-11T09:03:50.417Z,0.60
2023-03-11T09:06:17.980Z,0.50
2023-03-11T09:08:45.413Z,0.50
2023-03-11T09:11:13.667Z,0.40
2023-03-11T09:13:41.492Z,0.38
2023-03-11T09:16:12.504Z,0.47
2023-03-11T09:18:39.104Z,0.50
2023-03-11T09:21:06.205Z,0.38
2023-03-11T09:23:32.803Z,0.32
2023-03-11T09:25:59.338Z,0.35
2023-03-11T09:28:25.920Z,0.40
2023-03-11T09:30:52.459Z,0.45
2023-03-11T09:33:19.342Z,0.28
2023-03-11T09:35:46.180Z,0.40
2023-03-11T09:38:12.854Z,0.30
2023-03-11T09:40:55.897Z,0.25
2023-03-11T09:43:28.786Z,0.40
2023-03-11T09:46:22.483Z,0.50
2023-03-11T09:49:05.994Z,0.30
2023-03-11T09:51:51.382Z,0.40
2023-03-11T09:54:18.535Z,0.30
2023-03-11T09:56:45.336Z,0.40
2023-03-11T09:59:17.320Z,0.40
2023-03-11T10:01:47.012Z,0.35
2023-03-11T10:04:20.755Z,0.40
2023-03-11T10:06:48.099Z,0.30
2023-03-11T10:09:30.648Z,0.57
2023-03-11T10:12:08.171Z,0.30
2023-03-11T10:14:49.015Z,0.22
2023-03-11T10:17:47.798Z,0.45
2023-03-11T10:20:20.116Z,0.28
2023-03-11T10:23:12.722Z,0.30
2023-03-11T10:25:59.876Z,0.30
2023-03-11T10:28:51.992Z,0.47
2023-03-11T10:31:20.091Z,0.30
2023-03-11T10:33:48.861Z,0.35
2023-03-11T10:36:24.126Z,0.30
2023-03-11T10:38:52.893Z,0.40
2023-03-11T10:41:42.159Z,0.32
2023-03-11T10:44:24.474Z,0.30
2023-03-11T10:46:51.060Z,0.30
2023-03-11T10:49:18.515Z,0.22
2023-03-11T10:51:48.321Z,0.22
2023-03-11T10:54:30.471Z,0.40
2023-03-11T10:57:03.335Z,0.40
2023-03-11T10:59:45.233Z,0.20
2023-03-11T11:02:32.417Z,0.30
2023-03-11T11:05:32.812Z,0.20
2023-03-11T11:08:17.090Z,0.20
2023-03-11T11:10:51.799Z,0.40
2023-03-11T11:13:21.839Z,0.30
2023-03-11T11:15:54.986Z,0.30
2023-03-11T11:19:10.820Z,0.20
2023-03-11T11:21:52.399Z,0.30
2023-03-11T11:24:24.274Z,0.28
2023-03-11T11:27:19.178Z,0.40
2023-03-11T11:29:46.765Z,0.30
2023-03-11T11:32:19.388Z,0.30
2023-03-11T11:34:58.950Z,0.20
2023-03-11T11:37:31.996Z,0.35
2023-03-11T11:40:17.028Z,0.30
2023-03-11T11:43:12.872Z,0.30
2023-03-11T11:46:02.199Z,0.23
2023-03-11T11:48:50.134Z,0.40
2023-03-11T11:51:33.244Z,0.30
2023-03-11T11:54:09.220Z,0.30
2023-03-11T12:01:44.953Z,0.30
2023-03-11T12:04:12.204Z,0.40
2023-03-11T12:06:54.323Z,0.30
2023-03-11T12:09:30.401Z,0.35
2023-03-11T12:12:05.855Z,0.40
2023-03-11T12:14:38.523Z,0.30
2023-03-11T12:17:05.457Z,0.20
2023-03-11T12:19:43.961Z,0.25
2023-03-11T12:22:32.549Z,0.30
2023-03-11T12:25:22.072Z,0.35
2023-03-11T12:27:57.570Z,0.43
2023-03-11T12:30:29.472Z,0.30
2023-03-11T12:33:01.691Z,0.30
2023-03-11T12:35:30.952Z,0.40
2023-03-11T12:37:57.579Z,0.22
2023-03-11T12:40:42.534Z,0.30
2023-03-11T12:43:33.603Z,0.30
2023-03-11T12:46:02.057Z,0.20
2023-03-11T12:48:45.481Z,0.30
2023-03-11T12:51:27.059Z,0.20
2023-03-11T12:53:55.189Z,0.25
2023-03-11T12:56:30.758Z,0.30
2023-03-11T12:59:06.272Z,0.43
2023-03-11T13:02:14.151Z,0.38
2023-03-11T13:04:59.215Z,0.40
2023-03-11T13:07:28.694Z,0.25
2023-03-11T13:10:07.191Z,0.40
2023-03-11T13:12:49.601Z,0.40
2023-03-11T13:15:19.875Z,0.30
2023-03-11T13:17:59.843Z,0.50
2023-03-11T13:20:41.736Z,0.73
2023-03-11T13:23:14.411Z,0.77
2023-03-11T13:25:47.173Z,1.17
2023-03-11T13:28:27.717Z,1.00
2023-03-11T13:31:24.505Z,1.27
2023-03-11T13:36:50.088Z,1.83
2023-03-11T13:39:32.245Z,1.30
2023-03-11T13:41:58.851Z,1.35
2023-03-11T13:44:41.087Z,1.20
2023-03-11T13:47:13.944Z,1.30
2023-03-11T13:49:43.604Z,1.35
2023-03-11T13:52:16.924Z,1.42
2023-03-11T13:54:53.204Z,1.15
2023-03-11T13:57:31.779Z,1.30
2023-03-11T14:00:17.870Z,1.10
2023-03-11T14:03:09.591Z,1.10
2023-03-11T14:05:40.040Z,1.17
2023-03-11T14:08:24.128Z,0.80
2023-03-11T14:11:11.786Z,1.35
2023-03-11T14:13:46.623Z,1.42
2023-03-11T14:16:44.125Z,1.40
2023-03-11T14:19:16.419Z,1.02
2023-03-11T14:21:44.480Z,0.82
2023-03-11T14:24:23.843Z,1.02
2023-03-11T14:26:55.240Z,1.05
2023-03-11T14:29:38.284Z,1.10
2023-03-11T14:32:34.346Z,1.00
2023-03-11T14:35:01.331Z,0.95
2023-03-11T14:37:32.518Z,0.65
2023-03-11T14:39:59.161Z,1.35
2023-03-11T14:42:29.819Z,0.77
2023-03-11T14:45:07.841Z,0.68
2023-03-11T14:47:49.006Z,0.90
2023-03-11T14:50:21.958Z,0.60
2023-03-11T14:53:17.764Z,0.85
2023-03-11T14:55:51.101Z,0.50
2023-03-11T14:58:34.830Z,0.50
2023-03-11T15:01:42.867Z,0.50
2023-03-11T15:04:13.382Z,0.50
2023-03-11T15:06:45.862Z,0.50
2023-03-11T15:09:14.871Z,0.70
2023-03-11T15:11:55.750Z,0.40
2023-03-11T15:14:35.615Z,0.60
2023-03-11T15:17:39.223Z,0.40
2023-03-11T15:20:37.714Z,0.70
2023-03-11T15:23:06.260Z,0.60
2023-03-11T15:25:35.121Z,1.25
2023-03-11T15:28:27.137Z,0.40
2023-03-11T15:31:17.641Z,0.63
2023-03-11T15:33:44.614Z,0.35
2023-03-11T15:36:39.523Z,0.80
2023-03-11T15:39:13.788Z,0.43
2023-03-11T15:42:10.050Z,0.50
2023-03-11T15:44:51.607Z,0.50
2023-03-11T15:47:23.297Z,0.50
2023-03-11T15:49:50.484Z,0.50
2023-03-11T15:52:19.284Z,0.47
2023-03-11T15:54:55.059Z,0.43
2023-03-11T15:57:28.239Z,0.40
2023-03-11T15:59:57.248Z,0.65
2023-03-11T16:02:29.968Z,0.47
2023-03-11T16:04:57.986Z,0.43
2023-03-11T16:07:38.621Z,0.50
2023-03-11T16:10:07.909Z,0.30
2023-03-11T16:12:34.536Z,0.50
2023-03-11T16:15:01.576Z,0.40
2023-03-11T16:17:39.531Z,0.40
2023-03-11T16:20:13.582Z,0.40
2023-03-11T16:22:40.207Z,0.40
2023-03-11T16:25:09.913Z,0.50
2023-03-11T16:27:36.705Z,0.40
2023-03-11T16:30:03.777Z,0.50
2023-03-11T16:32:30.378Z,0.50
2023-03-11T16:34:57.126Z,0.35
2023-03-11T16:37:23.703Z,0.45
2023-03-11T16:39:50.396Z,0.50
2023-03-11T16:42:22.956Z,0.35
2023-03-11T16:44:50.141Z,0.50
2023-03-11T16:47:16.870Z,0.52
2023-03-11T16:49:43.550Z,0.40
2023-03-11T16:52:10.249Z,0.55
2023-03-11T16:54:36.924Z,0.30
2023-03-11T16:57:03.580Z,0.50
2023-03-11T16:59:30.218Z,0.40
2023-03-11T17:01:56.871Z,0.40
2023-03-11T17:04:23.520Z,0.47
2023-03-11T17:06:50.110Z,0.50
2023-03-11T17:09:16.662Z,0.35
2023-03-11T17:11:43.242Z,0.35
2023-03-11T17:14:16.195Z,0.32
2023-03-11T17:16:45.218Z,0.40
2023-03-11T17:19:11.906Z,0.38
2023-03-11T17:21:38.447Z,0.52
2023-03-11T17:24:05.368Z,0.40
2023-03-11T17:26:31.911Z,0.40
2023-03-11T17:28:59.199Z,0.50
2023-03-11T17:31:25.863Z,0.50
2023-03-11T17:33:52.440Z,0.30
2023-03-11T17:36:19.501Z,0.60
2023-03-11T17:38:47.084Z,0.30
2023-03-11T17:41:16.176Z,0.47
2023-03-11T17:43:43.154Z,0.43
2023-03-11T17:46:12.369Z,0.40
2023-03-11T17:48:38.931Z,0.40
2023-03-11T17:51:11.144Z,0.55
2023-03-11T17:53:40.210Z,0.35
2023-03-11T17:56:07.600Z,0.30
2023-03-11T17:58:35.246Z,0.40
2023-03-11T18:01:09.419Z,0.45
2023-03-11T18:03:36.012Z,0.50
2023-03-11T18:06:05.843Z,0.40
2023-03-11T18:08:34.136Z,0.30
2023-03-11T18:11:22.069Z,0.30
2023-03-11T18:13:48.998Z,0.50
2023-03-11T18:16:18.963Z,0.40
2023-03-11T18:18:46.356Z,0.30
2023-03-11T18:21:15.848Z,0.30
2023-03-11T18:23:42.956Z,0.40
2023-03-11T18:26:12.183Z,0.30
2023-03-11T18:28:39.657Z,0.40
2023-03-11T18:31:11.788Z,0.38
2023-03-11T18:33:39.395Z,0.50
2023-03-11T18:36:15.069Z,0.30
2023-03-11T18:38:41.751Z,0.40
2023-03-11T18:41:08.300Z,0.43
2023-03-11T18:43:35.112Z,0.40
2023-03-11T18:46:02.366Z,0.45
2023-03-11T18:48:28.950Z,0.40
2023-03-11T18:50:55.685Z,0.40
2023-03-11T18:53:24.873Z,0.38
2023-03-11T18:55:52.784Z,0.40
2023-03-11T18:58:19.969Z,0.30
2023-03-11T19:00:46.591Z,0.35
2023-03-11T19:03:13.504Z,0.40
2023-03-11T19:05:40.108Z,0.35
2023-03-11T19:08:06.757Z,0.30
2023-03-11T19:10:33.330Z,0.40
2023-03-11T19:12:59.870Z,0.40
2023-03-11T19:15:26.460Z,0.40
2023-03-11T19:18:05.987Z,0.40
2023-03-11T19:20:34.512Z,0.60
2023-03-11T19:23:01.159Z,0.35
2023-03-11T19:25:28.313Z,0.40
2023-03-11T19:27:56.531Z,0.30
2023-03-11T19:30:23.367Z,0.40
2023-03-11T19:32:53.239Z,0.30
2023-03-11T19:35:21.582Z,0.40
2023-03-11T19:37:49.217Z,0.43
2023-03-11T19:40:17.462Z,0.40
2023-03-11T19:42:44.383Z,0.30
2023-03-11T19:45:11.483Z,0.22
2023-03-11T19:47:38.695Z,0.30
2023-03-11T19:50:06.426Z,0.40
2023-03-11T19:52:35.594Z,0.30
2023-03-11T19:55:02.426Z,0.30
2023-03-11T19:57:29.081Z,0.30
2023-03-11T19:59:56.007Z,0.52
2023-03-11T20:02:22.616Z,0.40
2023-03-11T20:04:49.356Z,0.38
2023-03-11T20:07:15.970Z,0.30
2023-03-11T20:09:42.592Z,0.40
2023-03-11T20:12:09.491Z,0.40
2023-03-11T20:14:36.040Z,0.30
2023-03-11T20:17:02.684Z,0.40
2023-03-11T20:19:29.255Z,0.47
2023-03-11T20:21:55.936Z,0.35
2023-03-11T20:24:22.550Z,0.50
2023-03-11T20:26:51.205Z,0.38
2023-03-11T20:29:18.067Z,0.35
2023-03-11T20:31:44.741Z,0.20
2023-03-11T20:34:12.378Z,0.40
2023-03-11T20:36:39.059Z,0.57
2023-03-11T20:39:07.950Z,0.70
2023-03-11T20:41:38.974Z,0.50
2023-03-11T20:44:08.131Z,0.50
2023-03-11T20:46:35.534Z,0.30
2023-03-11T20:49:02.758Z,0.68
2023-03-11T20:51:29.738Z,0.40
2023-03-11T20:53:56.394Z,0.38
2023-03-11T20:56:25.223Z,0.55
2023-03-11T20:58:54.837Z,0.40
2023-03-11T21:01:39.518Z,0.38
2023-03-11T21:04:06.242Z,0.40
2023-03-11T21:06:35.737Z,0.50
2023-03-11T21:09:05.299Z,0.25
2023-03-11T21:11:32.616Z,0.35
2023-03-11T21:13:59.562Z,0.40
2023-03-11T21:16:27.080Z,0.40
2023-03-11T21:18:54.365Z,0.40
2023-03-11T21:21:21.082Z,0.40
2023-03-11T21:23:48.868Z,0.50
2023-03-11T21:26:16.616Z,0.30
2023-03-11T21:28:46.743Z,0.57
2023-03-11T21:31:19.933Z,0.50
2023-03-11T21:33:47.628Z,0.35
2023-03-11T21:36:17.651Z,0.40
2023-03-11T21:38:45.688Z,0.38
2023-03-11T21:41:15.601Z,0.43
2023-03-11T21:43:43.163Z,0.50
2023-03-11T21:46:13.515Z,0.40
2023-03-11T21:48:40.392Z,0.45
2023-03-11T21:51:07.813Z,0.45
2023-03-11T21:53:35.056Z,0.40
2023-03-11T21:56:03.724Z,0.57
2023-03-11T21:58:30.806Z,0.40
2023-03-11T22:00:57.489Z,0.40
2023-03-11T22:03:24.299Z,0.40
2023-03-11T22:06:00.423Z,0.45
2023-03-11T22:08:27.609Z,0.30
2023-03-11T22:10:54.785Z,0.43
2023-03-11T22:13:21.751Z,0.40
2023-03-11T22:15:48.659Z,0.40
2023-03-11T22:18:15.371Z,0.52
2023-03-11T22:20:42.955Z,0.30
2023-03-11T22:23:10.323Z,0.30
2023-03-11T22:25:37.511Z,0.50
2023-03-11T22:28:04.464Z,0.40
2023-03-11T22:30:31.331Z,0.57
2023-03-11T22:32:57.984Z,0.50
2023-03-11T22:35:24.635Z,0.60
2023-03-11T22:37:51.188Z,0.40
2023-03-11T22:40:17.879Z,0.50
2023-03-11T22:42:44.438Z,0.60
2023-03-11T22:45:11.396Z,0.57
2023-03-11T22:47:38.056Z,0.60
2023-03-11T22:50:04.985Z,0.60
2023-03-11T22:52:31.569Z,0.70
2023-03-11T22:54:58.124Z,0.55
2023-03-11T22:57:24.705Z,0.60
2023-03-11T22:59:51.357Z,0.60
2023-03-11T23:02:19.515Z,0.80
2023-03-11T23:04:46.211Z,0.77
2023-03-11T23:07:13.055Z,0.60
2023-03-11T23:09:39.788Z,0.70
2023-03-11T23:12:07.006Z,0.75
2023-03-11T23:14:44.682Z,0.60
2023-03-11T23:17:12.370Z,0.75
2023-03-11T23:19:39.085Z,0.88
2023-03-11T23:22:06.976Z,0.60
2023-03-11T23:24:34.077Z,0.60
2023-03-11T23:27:01.028Z,0.80
2023-03-11T23:29:27.568Z,0.70
2023-03-11T23:31:54.120Z,0.60
2023-03-11T23:34:20.683Z,0.70
2023-03-11T23:36:47.454Z,0.88
2023-03-11T23:39:13.983Z,0.73
2023-03-11T23:41:40.523Z,0.70
2023-03-11T23:44:07.064Z,0.70
2023-03-11T23:46:33.774Z,1.10
2023-03-11T23:49:01.224Z,0.90
2023-03-11T23:51:28.277Z,0.70
2023-03-11T23:53:54.897Z,0.88
2023-03-11T23:56:21.507Z,0.93
2023-03-11T23:58:48.180Z,1.13
